EDW89PE LEIB-LSZH
Flight info
| Callsign | EDW89PE |
|---|---|
| Flight time | 1h 41m |
| Altitude | 34000 |
| Route | N0453F340 KABRE DCT ELTAN DCT MHN DCT MEROS DCT LAPIT DCT CHELY DCT LUMAS DCT NEVIX DCT MAXIR DCT LUSOL DCT BODRU DCT OKTET DCT IRMAR/N0456F320 DCT KINES DCT VANAS DCT MOBLO DCT LAMUR DCT GUDAX Z57 DOPIL |
| Aircraft | A320/M-SDE2E3FGHIJ1RWXY/LB1 |
Departure
| Time | 2026-04-26 19:12 |
|---|---|
| Airport | Ibiza Airport (LEIB) |
Arrival
| Time | 2026-04-26 20:53 |
|---|---|
| Airport | Zürich Airport (LSZH) |
| Time | Latitude | Longitude | Altitude | Speed | Heading |
|---|---|---|---|---|---|
| 2026-04-26 18:40 | 38.87515 | 1.37140 | 9 ft | 0 kts | 332° |
| 2026-04-26 19:06 | 38.87531 | 1.37129 | 9 ft | 4 kts | 332° |
| 2026-04-26 19:06 | 38.87552 | 1.37112 | 9 ft | 3 kts | 309° |
| 2026-04-26 19:06 | 38.87541 | 1.37050 | 10 ft | 11 kts | 245° |
| 2026-04-26 19:06 | 38.87495 | 1.36939 | 10 ft | 17 kts | 242° |
| 2026-04-26 19:07 | 38.87450 | 1.36830 | 10 ft | 12 kts | 242° |
| 2026-04-26 19:07 | 38.87390 | 1.36806 | 8 ft | 9 kts | 155° |
| 2026-04-26 19:07 | 38.87325 | 1.36847 | 8 ft | 11 kts | 153° |
| 2026-04-26 19:07 | 38.87274 | 1.36836 | 9 ft | 7 kts | 235° |
| 2026-04-26 19:08 | 38.87250 | 1.36777 | 9 ft | 8 kts | 243° |
| 2026-04-26 19:08 | 38.87207 | 1.36671 | 8 ft | 18 kts | 242° |
| 2026-04-26 19:08 | 38.87141 | 1.36511 | 8 ft | 23 kts | 242° |
| 2026-04-26 19:08 | 38.87063 | 1.36327 | 8 ft | 24 kts | 242° |
| 2026-04-26 19:09 | 38.86986 | 1.36136 | 8 ft | 24 kts | 244° |
| 2026-04-26 19:09 | 38.86924 | 1.35983 | 8 ft | 15 kts | 242° |
| 2026-04-26 19:09 | 38.86877 | 1.35870 | 8 ft | 12 kts | 242° |
| 2026-04-26 19:09 | 38.86831 | 1.35813 | 8 ft | 9 kts | 188° |
| 2026-04-26 19:10 | 38.86781 | 1.35845 | 8 ft | 8 kts | 149° |
| 2026-04-26 19:10 | 38.86730 | 1.35884 | 5 ft | 9 kts | 148° |
| 2026-04-26 19:10 | 38.86719 | 1.35944 | 6 ft | 7 kts | 68° |
| 2026-04-26 19:10 | 38.86742 | 1.36004 | 6 ft | 8 kts | 63° |
| 2026-04-26 19:11 | 38.86785 | 1.36105 | 7 ft | 26 kts | 62° |
| 2026-04-26 19:11 | 38.86992 | 1.36608 | 8 ft | 97 kts | 62° |
| 2026-04-26 19:11 | 38.87399 | 1.37601 | 16 ft | 151 kts | 63° |
| 2026-04-26 19:11 | 38.87889 | 1.38843 | 526 ft | 159 kts | 64° |
| 2026-04-26 19:12 | 38.88313 | 1.40180 | 1171 ft | 165 kts | 74° |
| 2026-04-26 19:12 | 38.88591 | 1.41701 | 1550 ft | 186 kts | 77° |
| 2026-04-26 19:12 | 38.88894 | 1.43420 | 1885 ft | 207 kts | 77° |
| 2026-04-26 19:12 | 38.89227 | 1.45262 | 2557 ft | 215 kts | 77° |
| 2026-04-26 19:13 | 38.89570 | 1.47150 | 3311 ft | 219 kts | 78° |
| 2026-04-26 19:13 | 38.89917 | 1.49054 | 4141 ft | 219 kts | 78° |
| 2026-04-26 19:13 | 38.90264 | 1.50958 | 4938 ft | 220 kts | 78° |
| 2026-04-26 19:13 | 38.90611 | 1.52880 | 5698 ft | 222 kts | 78° |
| 2026-04-26 19:14 | 38.90796 | 1.54831 | 6389 ft | 228 kts | 92° |
| 2026-04-26 19:14 | 38.90621 | 1.56962 | 6703 ft | 252 kts | 97° |
| 2026-04-26 19:14 | 38.90394 | 1.59279 | 7193 ft | 268 kts | 97° |
| 2026-04-26 19:14 | 38.90315 | 1.60083 | 7443 ft | 270 kts | 97° |
| 2026-04-26 19:15 | 38.89919 | 1.64104 | 8788 ft | 276 kts | 97° |
| 2026-04-26 19:15 | 38.89526 | 1.66533 | 9584 ft | 281 kts | 108° |
| 2026-04-26 19:15 | 38.88752 | 1.68844 | 10367 ft | 286 kts | 114° |
| 2026-04-26 19:15 | 38.87883 | 1.71255 | 10620 ft | 309 kts | 113° |
| 2026-04-26 19:16 | 38.86943 | 1.73850 | 10832 ft | 332 kts | 114° |
| 2026-04-26 19:16 | 38.85934 | 1.76620 | 11121 ft | 350 kts | 114° |
| 2026-04-26 19:16 | 38.84888 | 1.79480 | 11703 ft | 357 kts | 114° |
| 2026-04-26 19:16 | 38.83827 | 1.82376 | 12412 ft | 360 kts | 114° |
| 2026-04-26 19:17 | 38.82758 | 1.85297 | 13113 ft | 363 kts | 114° |
| 2026-04-26 19:17 | 38.81779 | 1.88292 | 13784 ft | 366 kts | 106° |
| 2026-04-26 19:17 | 38.81295 | 1.91509 | 14393 ft | 369 kts | 94° |
| 2026-04-26 19:17 | 38.81385 | 1.94764 | 14983 ft | 373 kts | 82° |
| 2026-04-26 19:18 | 38.82056 | 1.97980 | 15580 ft | 377 kts | 69° |
| 2026-04-26 19:18 | 38.83101 | 2.01081 | 16144 ft | 381 kts | 68° |
| 2026-04-26 19:18 | 38.84163 | 2.04222 | 16743 ft | 384 kts | 68° |
| 2026-04-26 19:18 | 38.85227 | 2.07390 | 17294 ft | 389 kts | 68° |
| 2026-04-26 19:19 | 38.86299 | 2.10592 | 17870 ft | 392 kts | 68° |
| 2026-04-26 19:19 | 38.87379 | 2.13828 | 18436 ft | 396 kts | 68° |
| 2026-04-26 19:19 | 38.88467 | 2.17092 | 18961 ft | 399 kts | 68° |
| 2026-04-26 19:19 | 38.89560 | 2.20375 | 19491 ft | 401 kts | 68° |
| 2026-04-26 19:20 | 38.90288 | 2.22557 | 19812 ft | 403 kts | 68° |
| 2026-04-26 19:20 | 38.91021 | 2.24755 | 20142 ft | 405 kts | 68° |
| 2026-04-26 19:20 | 38.92509 | 2.29221 | 20783 ft | 409 kts | 68° |
| 2026-04-26 19:20 | 38.93628 | 2.32587 | 21278 ft | 411 kts | 68° |
| 2026-04-26 19:21 | 38.94752 | 2.35973 | 21743 ft | 413 kts | 68° |
| 2026-04-26 19:21 | 38.95881 | 2.39380 | 22188 ft | 416 kts | 68° |
| 2026-04-26 19:21 | 38.97016 | 2.42813 | 22637 ft | 419 kts | 68° |
| 2026-04-26 19:21 | 38.98530 | 2.47393 | 23191 ft | 422 kts | 68° |
| 2026-04-26 19:22 | 38.99305 | 2.49745 | 23471 ft | 424 kts | 67° |
| 2026-04-26 19:22 | 39.00458 | 2.53244 | 23834 ft | 427 kts | 68° |
| 2026-04-26 19:22 | 39.01619 | 2.56762 | 24174 ft | 429 kts | 67° |
| 2026-04-26 19:22 | 39.02789 | 2.60301 | 24505 ft | 431 kts | 68° |
| 2026-04-26 19:23 | 39.03964 | 2.63855 | 24839 ft | 433 kts | 68° |
| 2026-04-26 19:23 | 39.05138 | 2.67425 | 25154 ft | 435 kts | 68° |
| 2026-04-26 19:23 | 39.06315 | 2.71020 | 25498 ft | 436 kts | 68° |
| 2026-04-26 19:23 | 39.07495 | 2.74628 | 25777 ft | 439 kts | 68° |
| 2026-04-26 19:24 | 39.08684 | 2.78259 | 26096 ft | 441 kts | 68° |
| 2026-04-26 19:24 | 39.09860 | 2.81855 | 26357 ft | 443 kts | 68° |
| 2026-04-26 19:24 | 39.12252 | 2.89207 | 26909 ft | 448 kts | 68° |
| 2026-04-26 19:25 | 39.13452 | 2.92911 | 27206 ft | 449 kts | 68° |
| 2026-04-26 19:25 | 39.14267 | 2.95426 | 27371 ft | 451 kts | 67° |
| 2026-04-26 19:25 | 39.16002 | 3.00301 | 27708 ft | 453 kts | 64° |
| 2026-04-26 19:25 | 39.17435 | 3.03931 | 27936 ft | 456 kts | 63° |
| 2026-04-26 19:26 | 39.18930 | 3.07541 | 28175 ft | 457 kts | 62° |
| 2026-04-26 19:26 | 39.20441 | 3.11157 | 28385 ft | 460 kts | 62° |
| 2026-04-26 19:26 | 39.21944 | 3.14801 | 28656 ft | 460 kts | 62° |
| 2026-04-26 19:26 | 39.23425 | 3.18459 | 28973 ft | 460 kts | 63° |
| 2026-04-26 19:27 | 39.24882 | 3.22126 | 29293 ft | 459 kts | 63° |
| 2026-04-26 19:27 | 39.26324 | 3.25807 | 29603 ft | 459 kts | 63° |
| 2026-04-26 19:27 | 39.27759 | 3.29490 | 29926 ft | 459 kts | 63° |
| 2026-04-26 19:27 | 39.29191 | 3.33168 | 30239 ft | 459 kts | 63° |
| 2026-04-26 19:28 | 39.30627 | 3.36845 | 30520 ft | 458 kts | 63° |
| 2026-04-26 19:28 | 39.32067 | 3.40520 | 30802 ft | 458 kts | 63° |
| 2026-04-26 19:28 | 39.33503 | 3.44184 | 31095 ft | 457 kts | 63° |
| 2026-04-26 19:28 | 39.34935 | 3.47842 | 31372 ft | 456 kts | 63° |
| 2026-04-26 19:29 | 39.36348 | 3.51453 | 31657 ft | 456 kts | 63° |
| 2026-04-26 19:29 | 39.37774 | 3.55105 | 31943 ft | 455 kts | 63° |
| 2026-04-26 19:29 | 39.39199 | 3.58760 | 32244 ft | 454 kts | 63° |
| 2026-04-26 19:29 | 39.40617 | 3.62400 | 32537 ft | 453 kts | 63° |
| 2026-04-26 19:30 | 39.42033 | 3.66038 | 32818 ft | 453 kts | 64° |
| 2026-04-26 19:30 | 39.43445 | 3.69677 | 33101 ft | 452 kts | 64° |
| 2026-04-26 19:30 | 39.44853 | 3.73309 | 33389 ft | 451 kts | 64° |
| 2026-04-26 19:30 | 39.45785 | 3.75713 | 33579 ft | 451 kts | 64° |
| 2026-04-26 19:31 | 39.47665 | 3.80556 | 33969 ft | 450 kts | 63° |
| 2026-04-26 19:31 | 39.49072 | 3.84183 | 34132 ft | 452 kts | 63° |
| 2026-04-26 19:31 | 39.51899 | 3.91485 | 34158 ft | 454 kts | 64° |
| 2026-04-26 19:32 | 39.54715 | 3.98807 | 34161 ft | 454 kts | 64° |
| 2026-04-26 19:32 | 39.57506 | 4.06090 | 34159 ft | 454 kts | 63° |
| 2026-04-26 19:33 | 39.61192 | 4.12660 | 34161 ft | 453 kts | 43° |
| 2026-04-26 19:33 | 39.63667 | 4.15184 | 34163 ft | 453 kts | 32° |
| 2026-04-26 19:33 | 39.66456 | 4.17084 | 34162 ft | 453 kts | 22° |
| 2026-04-26 19:34 | 39.69461 | 4.18297 | 34162 ft | 453 kts | 11° |
| 2026-04-26 19:34 | 39.72572 | 4.18938 | 34160 ft | 453 kts | 8° |
| 2026-04-26 19:34 | 39.78814 | 4.20142 | 34159 ft | 454 kts | 8° |
| 2026-04-26 19:35 | 39.85059 | 4.21367 | 34158 ft | 454 kts | 8° |
| 2026-04-26 19:35 | 39.91293 | 4.22688 | 34161 ft | 454 kts | 10° |
| 2026-04-26 19:36 | 39.96460 | 4.23930 | 34166 ft | 454 kts | 10° |
| 2026-04-26 19:36 | 40.03715 | 4.25705 | 34165 ft | 454 kts | 9° |
| 2026-04-26 19:37 | 40.09887 | 4.27172 | 34161 ft | 454 kts | 9° |
| 2026-04-26 19:37 | 40.16102 | 4.28621 | 34160 ft | 454 kts | 9° |
| 2026-04-26 19:38 | 40.22310 | 4.30080 | 34161 ft | 453 kts | 9° |
| 2026-04-26 19:38 | 40.28520 | 4.31550 | 34161 ft | 453 kts | 9° |
| 2026-04-26 19:39 | 40.34724 | 4.33024 | 34161 ft | 453 kts | 9° |
| 2026-04-26 19:39 | 40.40928 | 4.34500 | 34163 ft | 453 kts | 9° |
| 2026-04-26 19:40 | 40.47133 | 4.35974 | 34162 ft | 453 kts | 9° |
| 2026-04-26 19:40 | 40.53297 | 4.37447 | 34162 ft | 453 kts | 9° |
| 2026-04-26 19:41 | 40.59500 | 4.38930 | 34161 ft | 453 kts | 9° |
| 2026-04-26 19:41 | 40.64702 | 4.40178 | 34160 ft | 453 kts | 9° |
| 2026-04-26 19:42 | 40.71914 | 4.41902 | 34163 ft | 453 kts | 9° |
| 2026-04-26 19:42 | 40.78127 | 4.43390 | 34165 ft | 454 kts | 9° |
| 2026-04-26 19:43 | 40.84335 | 4.44881 | 34164 ft | 454 kts | 9° |
| 2026-04-26 19:43 | 40.90546 | 4.46376 | 34168 ft | 454 kts | 9° |
| 2026-04-26 19:44 | 40.96759 | 4.47878 | 34168 ft | 454 kts | 9° |
| 2026-04-26 19:44 | 41.02924 | 4.49378 | 34166 ft | 454 kts | 9° |
| 2026-04-26 19:45 | 41.09128 | 4.50889 | 34173 ft | 453 kts | 8° |
| 2026-04-26 19:45 | 41.15330 | 4.52403 | 34172 ft | 453 kts | 8° |
| 2026-04-26 19:46 | 41.21527 | 4.53915 | 34171 ft | 453 kts | 8° |
| 2026-04-26 19:46 | 41.27721 | 4.55427 | 34175 ft | 452 kts | 8° |
| 2026-04-26 19:47 | 41.32863 | 4.56692 | 34169 ft | 452 kts | 8° |
| 2026-04-26 19:47 | 41.40095 | 4.58465 | 34171 ft | 452 kts | 8° |
| 2026-04-26 19:48 | 41.46282 | 4.59977 | 34163 ft | 452 kts | 8° |
| 2026-04-26 19:48 | 41.52427 | 4.61493 | 34165 ft | 452 kts | 8° |
| 2026-04-26 19:49 | 41.58611 | 4.63019 | 34153 ft | 452 kts | 8° |
| 2026-04-26 19:49 | 41.64799 | 4.64540 | 34149 ft | 452 kts | 8° |
| 2026-04-26 19:50 | 41.70986 | 4.66070 | 34156 ft | 452 kts | 8° |
| 2026-04-26 19:50 | 41.76971 | 4.68743 | 34149 ft | 456 kts | 20° |
| 2026-04-26 19:51 | 41.82796 | 4.72107 | 34147 ft | 456 kts | 20° |
| 2026-04-26 19:51 | 41.88627 | 4.75459 | 34146 ft | 456 kts | 20° |
| 2026-04-26 19:52 | 41.94458 | 4.78812 | 34153 ft | 455 kts | 20° |
| 2026-04-26 19:52 | 42.00278 | 4.82184 | 34153 ft | 455 kts | 20° |
| 2026-04-26 19:53 | 42.06051 | 4.85538 | 34151 ft | 455 kts | 20° |
| 2026-04-26 19:53 | 42.11868 | 4.88914 | 34176 ft | 455 kts | 19° |
| 2026-04-26 19:54 | 42.17691 | 4.92288 | 34165 ft | 455 kts | 19° |
| 2026-04-26 19:54 | 42.23515 | 4.95679 | 34166 ft | 456 kts | 19° |
| 2026-04-26 19:55 | 42.29333 | 4.99078 | 34156 ft | 456 kts | 19° |
| 2026-04-26 19:55 | 42.35155 | 5.02489 | 34147 ft | 457 kts | 19° |
| 2026-04-26 19:56 | 42.40958 | 5.06010 | 34139 ft | 460 kts | 25° |
| 2026-04-26 19:56 | 42.46241 | 5.10882 | 34139 ft | 464 kts | 32° |
| 2026-04-26 19:57 | 42.51471 | 5.16010 | 34153 ft | 464 kts | 32° |
| 2026-04-26 19:57 | 42.56711 | 5.21139 | 34143 ft | 465 kts | 32° |
| 2026-04-26 19:58 | 42.61948 | 5.26295 | 34145 ft | 465 kts | 32° |
| 2026-04-26 19:58 | 42.67184 | 5.31468 | 34145 ft | 466 kts | 32° |
| 2026-04-26 19:59 | 42.72425 | 5.36655 | 34142 ft | 466 kts | 32° |
| 2026-04-26 19:59 | 42.77664 | 5.41856 | 34146 ft | 467 kts | 32° |
| 2026-04-26 20:00 | 42.82910 | 5.47066 | 34149 ft | 467 kts | 32° |
| 2026-04-26 20:00 | 42.88154 | 5.52292 | 34152 ft | 467 kts | 33° |
| 2026-04-26 20:01 | 42.93365 | 5.57482 | 34161 ft | 467 kts | 33° |
| 2026-04-26 20:01 | 42.98608 | 5.62717 | 34158 ft | 467 kts | 33° |
| 2026-04-26 20:02 | 43.03868 | 5.67986 | 34159 ft | 467 kts | 33° |
| 2026-04-26 20:02 | 43.08225 | 5.72359 | 34155 ft | 468 kts | 33° |
| 2026-04-26 20:03 | 43.14350 | 5.78529 | 34165 ft | 468 kts | 33° |
| 2026-04-26 20:03 | 43.19565 | 5.83783 | 34164 ft | 468 kts | 34° |
| 2026-04-26 20:04 | 43.24805 | 5.89086 | 34165 ft | 468 kts | 34° |
| 2026-04-26 20:04 | 43.30039 | 5.94391 | 34179 ft | 467 kts | 34° |
| 2026-04-26 20:05 | 43.35265 | 5.99679 | 34180 ft | 466 kts | 32° |
| 2026-04-26 20:05 | 43.41031 | 6.03506 | 34182 ft | 459 kts | 14° |
| 2026-04-26 20:06 | 43.47277 | 6.04830 | 34183 ft | 453 kts | 1° |
| 2026-04-26 20:06 | 43.53567 | 6.05457 | 34183 ft | 453 kts | 2° |
| 2026-04-26 20:07 | 43.59814 | 6.06095 | 34181 ft | 453 kts | 2° |
| 2026-04-26 20:07 | 43.66094 | 6.06738 | 34173 ft | 453 kts | 2° |
| 2026-04-26 20:08 | 43.72376 | 6.07373 | 34180 ft | 452 kts | 2° |
| 2026-04-26 20:08 | 43.78553 | 6.09007 | 34178 ft | 455 kts | 18° |
| 2026-04-26 20:09 | 43.84311 | 6.12720 | 34161 ft | 458 kts | 24° |
| 2026-04-26 20:09 | 43.90025 | 6.16621 | 34167 ft | 458 kts | 25° |
| 2026-04-26 20:10 | 43.95741 | 6.20517 | 34172 ft | 458 kts | 25° |
| 2026-04-26 20:10 | 44.01452 | 6.24425 | 34178 ft | 458 kts | 25° |
| 2026-04-26 20:11 | 44.07122 | 6.28308 | 34191 ft | 457 kts | 25° |
| 2026-04-26 20:12 | 44.15654 | 6.34179 | 34191 ft | 455 kts | 25° |
| 2026-04-26 20:12 | 44.21334 | 6.38098 | 34189 ft | 455 kts | 25° |
| 2026-04-26 20:13 | 44.27004 | 6.42013 | 34200 ft | 454 kts | 25° |
| 2026-04-26 20:13 | 44.32667 | 6.45930 | 34197 ft | 454 kts | 25° |
| 2026-04-26 20:14 | 44.38325 | 6.49845 | 34173 ft | 454 kts | 25° |
| 2026-04-26 20:14 | 44.43947 | 6.53759 | 34170 ft | 455 kts | 25° |
| 2026-04-26 20:15 | 44.49609 | 6.57708 | 34187 ft | 454 kts | 25° |
| 2026-04-26 20:15 | 44.55261 | 6.61665 | 34188 ft | 454 kts | 25° |
| 2026-04-26 20:16 | 44.60907 | 6.65618 | 34187 ft | 454 kts | 25° |
| 2026-04-26 20:16 | 44.66555 | 6.69575 | 34189 ft | 454 kts | 25° |
| 2026-04-26 20:17 | 44.72206 | 6.73543 | 34189 ft | 454 kts | 25° |
| 2026-04-26 20:17 | 44.77889 | 6.77235 | 34183 ft | 451 kts | 16° |
| 2026-04-26 20:18 | 44.84020 | 6.78732 | 34186 ft | 447 kts | 359° |
| 2026-04-26 20:18 | 44.90221 | 6.78388 | 34185 ft | 446 kts | 355° |
| 2026-04-26 20:19 | 44.96420 | 6.77965 | 34184 ft | 446 kts | 355° |
| 2026-04-26 20:19 | 45.02617 | 6.77558 | 34199 ft | 446 kts | 356° |
| 2026-04-26 20:20 | 45.08806 | 6.77156 | 34197 ft | 445 kts | 356° |
| 2026-04-26 20:20 | 45.14984 | 6.76741 | 34199 ft | 444 kts | 356° |
| 2026-04-26 20:21 | 45.21162 | 6.76330 | 34207 ft | 444 kts | 356° |
| 2026-04-26 20:21 | 45.27322 | 6.75919 | 34209 ft | 442 kts | 356° |
| 2026-04-26 20:22 | 45.33426 | 6.75508 | 34207 ft | 442 kts | 356° |
| 2026-04-26 20:22 | 45.39555 | 6.75106 | 34207 ft | 441 kts | 356° |
| 2026-04-26 20:23 | 45.45685 | 6.74697 | 34211 ft | 440 kts | 356° |
| 2026-04-26 20:23 | 45.51801 | 6.74282 | 34205 ft | 440 kts | 356° |
| 2026-04-26 20:24 | 45.56885 | 6.73934 | 34202 ft | 440 kts | 356° |
| 2026-04-26 20:24 | 45.62985 | 6.73511 | 34212 ft | 438 kts | 356° |
| 2026-04-26 20:25 | 45.69075 | 6.73089 | 34205 ft | 437 kts | 356° |
| 2026-04-26 20:25 | 45.75143 | 6.72674 | 34200 ft | 436 kts | 356° |
| 2026-04-26 20:26 | 45.81185 | 6.73127 | 34204 ft | 437 kts | 11° |
| 2026-04-26 20:26 | 45.86881 | 6.76126 | 34202 ft | 437 kts | 22° |
| 2026-04-26 20:27 | 45.92382 | 6.79715 | 34192 ft | 437 kts | 22° |
| 2026-04-26 20:27 | 45.97911 | 6.83329 | 34197 ft | 436 kts | 22° |
| 2026-04-26 20:28 | 46.03430 | 6.86938 | 34199 ft | 436 kts | 22° |
| 2026-04-26 20:28 | 46.08944 | 6.90553 | 34191 ft | 435 kts | 22° |
| 2026-04-26 20:29 | 46.14451 | 6.94175 | 34179 ft | 435 kts | 22° |
| 2026-04-26 20:29 | 46.19951 | 6.97807 | 34179 ft | 435 kts | 22° |
| 2026-04-26 20:30 | 46.25447 | 7.01448 | 34172 ft | 434 kts | 22° |
| 2026-04-26 20:30 | 46.30938 | 7.05093 | 34172 ft | 434 kts | 22° |
| 2026-04-26 20:31 | 46.36383 | 7.08711 | 34174 ft | 434 kts | 22° |
| 2026-04-26 20:31 | 46.41871 | 7.12354 | 34178 ft | 433 kts | 22° |
| 2026-04-26 20:32 | 46.47347 | 7.16006 | 34178 ft | 433 kts | 22° |
| 2026-04-26 20:32 | 46.52814 | 7.19676 | 34178 ft | 433 kts | 22° |
| 2026-04-26 20:33 | 46.58184 | 7.23664 | 34169 ft | 436 kts | 32° |
| 2026-04-26 20:33 | 46.62873 | 7.29305 | 34173 ft | 438 kts | 38° |
| 2026-04-26 20:34 | 46.67477 | 7.35118 | 34173 ft | 439 kts | 38° |
| 2026-04-26 20:34 | 46.72100 | 7.40932 | 34170 ft | 439 kts | 38° |
| 2026-04-26 20:35 | 46.76688 | 7.46735 | 34179 ft | 440 kts | 38° |
| 2026-04-26 20:35 | 46.80840 | 7.53316 | 33995 ft | 444 kts | 48° |
| 2026-04-26 20:35 | 46.82766 | 7.56849 | 33722 ft | 445 kts | 48° |
| 2026-04-26 20:36 | 46.84695 | 7.60389 | 33448 ft | 445 kts | 48° |
| 2026-04-26 20:36 | 46.86627 | 7.63934 | 33156 ft | 446 kts | 49° |
| 2026-04-26 20:36 | 46.88560 | 7.67493 | 32151 ft | 449 kts | 49° |
| 2026-04-26 20:36 | 46.90508 | 7.71081 | 31162 ft | 451 kts | 49° |
| 2026-04-26 20:37 | 46.92466 | 7.74682 | 30145 ft | 454 kts | 48° |
| 2026-04-26 20:37 | 46.94439 | 7.78319 | 28960 ft | 457 kts | 49° |
| 2026-04-26 20:37 | 46.96413 | 7.81973 | 27805 ft | 459 kts | 49° |
| 2026-04-26 20:37 | 46.98395 | 7.85651 | 26604 ft | 462 kts | 49° |
| 2026-04-26 20:38 | 47.00394 | 7.89357 | 25656 ft | 461 kts | 49° |
| 2026-04-26 20:38 | 47.02339 | 7.92972 | 24905 ft | 456 kts | 49° |
| 2026-04-26 20:38 | 47.04295 | 7.96613 | 24085 ft | 453 kts | 49° |
| 2026-04-26 20:38 | 47.06245 | 8.00232 | 23203 ft | 451 kts | 48° |
| 2026-04-26 20:39 | 47.08363 | 8.03567 | 22453 ft | 443 kts | 41° |
| 2026-04-26 20:39 | 47.10577 | 8.06675 | 21742 ft | 438 kts | 41° |
| 2026-04-26 20:39 | 47.12769 | 8.09757 | 21022 ft | 434 kts | 41° |
| 2026-04-26 20:39 | 47.14941 | 8.12809 | 20334 ft | 430 kts | 41° |
| 2026-04-26 20:40 | 47.17094 | 8.15830 | 19652 ft | 426 kts | 41° |
| 2026-04-26 20:40 | 47.19227 | 8.18825 | 18992 ft | 423 kts | 41° |
| 2026-04-26 20:40 | 47.21199 | 8.22025 | 18328 ft | 422 kts | 51° |
| 2026-04-26 20:40 | 47.22739 | 8.25691 | 17692 ft | 421 kts | 62° |
| 2026-04-26 20:41 | 47.23805 | 8.29680 | 17105 ft | 418 kts | 72° |
| 2026-04-26 20:41 | 47.24425 | 8.33845 | 16543 ft | 415 kts | 78° |
| 2026-04-26 20:41 | 47.24951 | 8.38004 | 15987 ft | 411 kts | 78° |
| 2026-04-26 20:41 | 47.25475 | 8.42119 | 15440 ft | 407 kts | 78° |
| 2026-04-26 20:42 | 47.25994 | 8.46201 | 14894 ft | 404 kts | 78° |
| 2026-04-26 20:42 | 47.26507 | 8.50250 | 14349 ft | 401 kts | 78° |
| 2026-04-26 20:42 | 47.27018 | 8.54277 | 13732 ft | 399 kts | 78° |
| 2026-04-26 20:42 | 47.27518 | 8.58257 | 13123 ft | 395 kts | 79° |
| 2026-04-26 20:43 | 47.28014 | 8.62240 | 12506 ft | 392 kts | 79° |
| 2026-04-26 20:43 | 47.28497 | 8.66164 | 11854 ft | 389 kts | 79° |
| 2026-04-26 20:43 | 47.28978 | 8.70067 | 11264 ft | 384 kts | 79° |
| 2026-04-26 20:43 | 47.29435 | 8.73802 | 11122 ft | 368 kts | 79° |
| 2026-04-26 20:44 | 47.29877 | 8.77432 | 10997 ft | 352 kts | 79° |
| 2026-04-26 20:44 | 47.30299 | 8.80906 | 10873 ft | 338 kts | 79° |
| 2026-04-26 20:44 | 47.30706 | 8.84241 | 10750 ft | 325 kts | 79° |
| 2026-04-26 20:44 | 47.31099 | 8.87457 | 10627 ft | 313 kts | 79° |
| 2026-04-26 20:45 | 47.31382 | 8.90594 | 10413 ft | 306 kts | 88° |
| 2026-04-26 20:45 | 47.31249 | 8.93682 | 10334 ft | 302 kts | 96° |
| 2026-04-26 20:45 | 47.31046 | 8.96766 | 10202 ft | 301 kts | 90° |
| 2026-04-26 20:45 | 47.31464 | 8.99767 | 9681 ft | 304 kts | 61° |
| 2026-04-26 20:46 | 47.32790 | 9.02107 | 9341 ft | 296 kts | 36° |
| 2026-04-26 20:46 | 47.34639 | 9.03354 | 8830 ft | 293 kts | 10° |
| 2026-04-26 20:46 | 47.36661 | 9.03759 | 8280 ft | 296 kts | 5° |
| 2026-04-26 20:46 | 47.38692 | 9.04080 | 7735 ft | 298 kts | 2° |
| 2026-04-26 20:47 | 47.40722 | 9.03624 | 7160 ft | 296 kts | 333° |
| 2026-04-26 20:47 | 47.41834 | 9.02461 | 6867 ft | 288 kts | 311° |
| 2026-04-26 20:47 | 47.42751 | 8.99051 | 6555 ft | 264 kts | 273° |
| 2026-04-26 20:47 | 47.42826 | 8.96420 | 6307 ft | 249 kts | 273° |
| 2026-04-26 20:48 | 47.42963 | 8.93942 | 6079 ft | 238 kts | 276° |
| 2026-04-26 20:48 | 47.43142 | 8.91531 | 5861 ft | 232 kts | 276° |
| 2026-04-26 20:48 | 47.43319 | 8.89188 | 5648 ft | 227 kts | 276° |
| 2026-04-26 20:48 | 47.43490 | 8.86895 | 5441 ft | 222 kts | 276° |
| 2026-04-26 20:49 | 47.43655 | 8.84663 | 5306 ft | 214 kts | 276° |
| 2026-04-26 20:49 | 47.43810 | 8.82553 | 5163 ft | 203 kts | 276° |
| 2026-04-26 20:49 | 47.43962 | 8.80494 | 4873 ft | 200 kts | 276° |
| 2026-04-26 20:49 | 47.44110 | 8.78466 | 4578 ft | 196 kts | 276° |
| 2026-04-26 20:50 | 47.44253 | 8.76515 | 4289 ft | 186 kts | 277° |
| 2026-04-26 20:50 | 47.44388 | 8.74659 | 4027 ft | 177 kts | 278° |
| 2026-04-26 20:50 | 47.44512 | 8.72951 | 3793 ft | 165 kts | 278° |
| 2026-04-26 20:50 | 47.44634 | 8.71287 | 3554 ft | 160 kts | 278° |
| 2026-04-26 20:51 | 47.44752 | 8.69664 | 3328 ft | 159 kts | 278° |
| 2026-04-26 20:51 | 47.44868 | 8.68059 | 3092 ft | 157 kts | 278° |
| 2026-04-26 20:51 | 47.44983 | 8.66464 | 2863 ft | 155 kts | 278° |
| 2026-04-26 20:51 | 47.45098 | 8.64880 | 2634 ft | 155 kts | 278° |
| 2026-04-26 20:52 | 47.45211 | 8.63309 | 2415 ft | 153 kts | 277° |
| 2026-04-26 20:52 | 47.45323 | 8.61773 | 2169 ft | 148 kts | 277° |
| 2026-04-26 20:52 | 47.45430 | 8.60283 | 1953 ft | 144 kts | 277° |
| 2026-04-26 20:52 | 47.45535 | 8.58822 | 1732 ft | 142 kts | 277° |
| 2026-04-26 20:53 | 47.45640 | 8.57372 | 1522 ft | 141 kts | 277° |
| 2026-04-26 20:53 | 47.45738 | 8.55972 | 1412 ft | 125 kts | 276° |
| 2026-04-26 20:53 | 47.45810 | 8.54949 | 1388 ft | 72 kts | 276° |
| 2026-04-26 20:53 | 47.45820 | 8.54520 | 1386 ft | 30 kts | 257° |
| 2026-04-26 20:54 | 47.45778 | 8.54343 | 1388 ft | 11 kts | 247° |
| 2026-04-26 20:54 | 47.45746 | 8.54239 | 1385 ft | 11 kts | 233° |
| 2026-04-26 20:54 | 47.45675 | 8.54201 | 1385 ft | 11 kts | 176° |
| 2026-04-26 20:54 | 47.45622 | 8.54252 | 1385 ft | 9 kts | 127° |
| 2026-04-26 20:55 | 47.45591 | 8.54378 | 1386 ft | 16 kts | 108° |
| 2026-04-26 20:55 | 47.45554 | 8.54550 | 1389 ft | 18 kts | 107° |
| 2026-04-26 20:55 | 47.45512 | 8.54736 | 1395 ft | 20 kts | 109° |
| 2026-04-26 20:55 | 47.45467 | 8.54931 | 1396 ft | 21 kts | 109° |
| 2026-04-26 20:56 | 47.45422 | 8.55128 | 1398 ft | 16 kts | 109° |
| 2026-04-26 20:56 | 47.45388 | 8.55264 | 1403 ft | 14 kts | 116° |
| 2026-04-26 20:56 | 47.45342 | 8.55387 | 1400 ft | 14 kts | 119° |
| 2026-04-26 20:56 | 47.45300 | 8.55497 | 1411 ft | 10 kts | 119° |
| 2026-04-26 20:57 | 47.45275 | 8.55588 | 1406 ft | 12 kts | 97° |
| 2026-04-26 20:57 | 47.45265 | 8.55718 | 1407 ft | 13 kts | 96° |
| 2026-04-26 20:57 | 47.45256 | 8.55848 | 1411 ft | 13 kts | 96° |
| 2026-04-26 20:57 | 47.45235 | 8.55908 | 1413 ft | 5 kts | 175° |
| 2026-04-26 20:58 | 47.45198 | 8.55903 | 1407 ft | 5 kts | 187° |
| 2026-04-26 20:58 | 47.45167 | 8.55898 | 1407 ft | 3 kts | 186° |
| 2026-04-26 20:58 | 47.45159 | 8.55897 | 1407 ft | 0 kts | 186° |
| 2026-04-26 20:58 | 47.45158 | 8.55897 | 1407 ft | 0 kts | 186° |